sensor_id;sensor_type;location;lat;lon;timestamp;pressure;altitude;pressure_sealevel;temperature;humidity
12879;BME280;20617;49.476;10.986;2023-03-13T00:01:30;97780.03;;;8.90;100.00
12879;BME280;20617;49.476;10.986;2023-03-13T00:03:35;97773.09;;;8.91;100.00
12879;BME280;20617;49.476;10.986;2023-03-13T00:05:39;97763.59;;;8.90;100.00
12879;BME280;20617;49.476;10.986;2023-03-13T00:07:46;97765.34;;;8.89;100.00
12879;BME280;20617;49.476;10.986;2023-03-13T00:09:51;97751.41;;;8.92;100.00
12879;BME280;20617;49.476;10.986;2023-03-13T00:11:56;97755.75;;;8.91;100.00
12879;BME280;20617;49.476;10.986;2023-03-13T00:14:01;97744.41;;;8.94;100.00
12879;BME280;20617;49.476;10.986;2023-03-13T00:16:07;97737.47;;;8.94;100.00
12879;BME280;20617;49.476;10.986;2023-03-13T00:18:12;97734.03;;;8.94;100.00
12879;BME280;20617;49.476;10.986;2023-03-13T00:20:16;97742.50;;;8.97;100.00
12879;BME280;20617;49.476;10.986;2023-03-13T00:22:21;97739.97;;;8.96;100.00
12879;BME280;20617;49.476;10.986;2023-03-13T00:24:28;97734.03;;;8.94;100.00
12879;BME280;20617;49.476;10.986;2023-03-13T00:26:35;97732.13;;;8.97;100.00
12879;BME280;20617;49.476;10.986;2023-03-13T00:28:40;97733.88;;;8.97;100.00
12879;BME280;20617;49.476;10.986;2023-03-13T00:30:46;97726.00;;;8.98;100.00
12879;BME280;20617;49.476;10.986;2023-03-13T00:32:51;97726.88;;;8.99;100.00
12879;BME280;20617;49.476;10.986;2023-03-13T00:34:56;97726.81;;;9.00;100.00
12879;BME280;20617;49.476;10.986;2023-03-13T00:37:00;97727.59;;;9.02;100.00
12879;BME280;20617;49.476;10.986;2023-03-13T00:39:05;97726.81;;;9.00;100.00
12879;BME280;20617;49.476;10.986;2023-03-13T00:41:13;97718.09;;;9.01;100.00
12879;BME280;20617;49.476;10.986;2023-03-13T00:43:18;97708.56;;;9.02;100.00
12879;BME280;20617;49.476;10.986;2023-03-13T00:45:23;97725.03;;;9.01;100.00
12879;BME280;20617;49.476;10.986;2023-03-13T00:47:27;97718.03;;;9.03;100.00
12879;BME280;20617;49.476;10.986;2023-03-13T00:49:32;97719.72;;;9.04;100.00
12879;BME280;20617;49.476;10.986;2023-03-13T00:51:36;97731.00;;;9.03;100.00
12879;BME280;20617;49.476;10.986;2023-03-13T00:53:41;97727.50;;;9.04;100.00
12879;BME280;20617;49.476;10.986;2023-03-13T00:55:52;97718.03;;;9.03;100.00
12879;BME280;20617;49.476;10.986;2023-03-13T00:58:00;97731.94;;;9.02;100.00
12879;BME280;20617;49.476;10.986;2023-03-13T01:00:05;97723.28;;;9.01;100.00
12879;BME280;20617;49.476;10.986;2023-03-13T01:02:10;97719.16;;;8.97;100.00
12879;BME280;20617;49.476;10.986;2023-03-13T01:04:15;97721.78;;;8.96;100.00
12879;BME280;20617;49.476;10.986;2023-03-13T01:06:20;97720.13;;;8.95;100.00
12879;BME280;20617;49.476;10.986;2023-03-13T01:08:25;97700.19;;;8.95;100.00
12879;BME280;20617;49.476;10.986;2023-03-13T01:10:30;97695.84;;;8.96;100.00
12879;BME280;20617;49.476;10.986;2023-03-13T01:12:35;97693.31;;;8.94;100.00
12879;BME280;20617;49.476;10.986;2023-03-13T01:14:42;97696.84;;;8.93;100.00
12879;BME280;20617;49.476;10.986;2023-03-13T01:16:46;97709.69;;;8.96;100.00
12879;BME280;20617;49.476;10.986;2023-03-13T01:18:52;97704.56;;;8.95;100.00
12879;BME280;20617;49.476;10.986;2023-03-13T01:20:56;97688.13;;;8.94;100.00
12879;BME280;20617;49.476;10.986;2023-03-13T01:23:01;97697.53;;;8.97;100.00
12879;BME280;20617;49.476;10.986;2023-03-13T01:25:06;97689.75;;;8.97;100.00
12879;BME280;20617;49.476;10.986;2023-03-13T01:27:11;97687.22;;;8.95;100.00
12879;BME280;20617;49.476;10.986;2023-03-13T01:29:16;97684.72;;;8.94;100.00
12879;BME280;20617;49.476;10.986;2023-03-13T01:31:24;97682.16;;;8.92;100.00
12879;BME280;20617;49.476;10.986;2023-03-13T01:33:29;97676.22;;;8.90;100.00
12879;BME280;20617;49.476;10.986;2023-03-13T01:35:34;97678.09;;;8.87;100.00
12879;BME280;20617;49.476;10.986;2023-03-13T01:37:38;97671.22;;;8.86;100.00
12879;BME280;20617;49.476;10.986;2023-03-13T01:39:43;97672.13;;;8.84;100.00
12879;BME280;20617;49.476;10.986;2023-03-13T01:41:48;97659.16;;;8.84;100.00
12879;BME280;20617;49.476;10.986;2023-03-13T01:43:53;97654.72;;;8.87;100.00
12879;BME280;20617;49.476;10.986;2023-03-13T01:46:09;97662.50;;;8.87;100.00
12879;BME280;20617;49.476;10.986;2023-03-13T01:48:25;97662.66;;;8.83;100.00
12879;BME280;20617;49.476;10.986;2023-03-13T01:50:32;97660.75;;;8.87;100.00
12879;BME280;20617;49.476;10.986;2023-03-13T01:52:48;97661.75;;;8.84;100.00
12879;BME280;20617;49.476;10.986;2023-03-13T01:55:01;97655.50;;;8.89;100.00
12879;BME280;20617;49.476;10.986;2023-03-13T01:57:10;97652.78;;;8.92;100.00
12879;BME280;20617;49.476;10.986;2023-03-13T01:59:17;97644.16;;;8.91;100.00
12879;BME280;20617;49.476;10.986;2023-03-13T02:01:24;97648.41;;;8.92;100.00
12879;BME280;20617;49.476;10.986;2023-03-13T02:03:32;97645.69;;;8.95;100.00
12879;BME280;20617;49.476;10.986;2023-03-13T02:05:38;97648.13;;;8.98;100.00
12879;BME280;20617;49.476;10.986;2023-03-13T02:07:43;97641.13;;;9.00;100.00
12879;BME280;20617;49.476;10.986;2023-03-13T02:09:50;97640.28;;;9.00;100.00
12879;BME280;20617;49.476;10.986;2023-03-13T02:11:57;97637.69;;;9.00;100.00
12879;BME280;20617;49.476;10.986;2023-03-13T02:14:04;97635.16;;;8.98;100.00
12879;BME280;20617;49.476;10.986;2023-03-13T02:16:09;97629.06;;;8.99;100.00
12879;BME280;20617;49.476;10.986;2023-03-13T02:18:14;97629.13;;;8.98;100.00
12879;BME280;20617;49.476;10.986;2023-03-13T02:20:22;97616.16;;;8.98;100.00
12879;BME280;20617;49.476;10.986;2023-03-13T02:22:28;97616.97;;;8.98;100.00
12879;BME280;20617;49.476;10.986;2023-03-13T02:24:38;97609.28;;;8.97;100.00
12879;BME280;20617;49.476;10.986;2023-03-13T02:26:49;97608.66;;;8.92;100.00
12879;BME280;20617;49.476;10.986;2023-03-13T02:28:53;97612.84;;;8.94;100.00
12879;BME280;20617;49.476;10.986;2023-03-13T02:30:58;97612.44;;;8.84;100.00
12879;BME280;20617;49.476;10.986;2023-03-13T02:33:04;97612.38;;;8.86;100.00
12879;BME280;20617;49.476;10.986;2023-03-13T02:35:09;97611.44;;;8.87;100.00
12879;BME280;20617;49.476;10.986;2023-03-13T02:37:15;97603.66;;;8.87;100.00
12879;BME280;20617;49.476;10.986;2023-03-13T02:39:20;97609.84;;;8.84;100.00
12879;BME280;20617;49.476;10.986;2023-03-13T02:41:26;97598.59;;;8.84;100.00
12879;BME280;20617;49.476;10.986;2023-03-13T02:43:36;97596.78;;;8.86;100.00
12879;BME280;20617;49.476;10.986;2023-03-13T02:45:41;97596.66;;;8.89;100.00
12879;BME280;20617;49.476;10.986;2023-03-13T02:47:46;97587.97;;;8.90;100.00
12879;BME280;20617;49.476;10.986;2023-03-13T02:49:50;97592.28;;;8.90;100.00
12879;BME280;20617;49.476;10.986;2023-03-13T02:51:56;97587.03;;;8.91;100.00
12879;BME280;20617;49.476;10.986;2023-03-13T02:54:02;97581.00;;;8.91;100.00
12879;BME280;20617;49.476;10.986;2023-03-13T02:56:10;97581.75;;;8.93;100.00
12879;BME280;20617;49.476;10.986;2023-03-13T02:58:16;97577.59;;;8.90;100.00
12879;BME280;20617;49.476;10.986;2023-03-13T03:00:23;97572.44;;;8.89;100.00
12879;BME280;20617;49.476;10.986;2023-03-13T03:02:29;97577.69;;;8.87;100.00
12879;BME280;20617;49.476;10.986;2023-03-13T03:04:33;97578.72;;;8.84;100.00
12879;BME280;20617;49.476;10.986;2023-03-13T03:06:38;97579.53;;;8.85;100.00
12879;BME280;20617;49.476;10.986;2023-03-13T03:08:43;97579.69;;;8.82;100.00
12879;BME280;20617;49.476;10.986;2023-03-13T03:10:47;97579.59;;;8.83;100.00
12879;BME280;20617;49.476;10.986;2023-03-13T03:12:54;97568.66;;;8.77;100.00
12879;BME280;20617;49.476;10.986;2023-03-13T03:14:58;97581.50;;;8.80;100.00
12879;BME280;20617;49.476;10.986;2023-03-13T03:17:09;97575.38;;;8.81;100.00
12879;BME280;20617;49.476;10.986;2023-03-13T03:19:13;97565.25;;;8.76;100.00
12879;BME280;20617;49.476;10.986;2023-03-13T03:21:18;97568.56;;;8.78;100.00
12879;BME280;20617;49.476;10.986;2023-03-13T03:23:25;97566.06;;;8.77;100.00
12879;BME280;20617;49.476;10.986;2023-03-13T03:25:30;97573.16;;;8.73;100.00
12879;BME280;20617;49.476;10.986;2023-03-13T03:27:34;97565.25;;;8.76;100.00
12879;BME280;20617;49.476;10.986;2023-03-13T03:29:41;97565.16;;;8.78;100.00
12879;BME280;20617;49.476;10.986;2023-03-13T03:31:46;97578.91;;;8.80;100.00
12879;BME280;20617;49.476;10.986;2023-03-13T03:33:53;97564.25;;;8.79;100.00
12879;BME280;20617;49.476;10.986;2023-03-13T03:35:58;97564.25;;;8.79;100.00
12879;BME280;20617;49.476;10.986;2023-03-13T03:38:04;97569.50;;;8.77;100.00
12879;BME280;20617;49.476;10.986;2023-03-13T03:40:10;97561.56;;;8.80;100.00
12879;BME280;20617;49.476;10.986;2023-03-13T03:42:16;97575.38;;;8.81;100.00
12879;BME280;20617;49.476;10.986;2023-03-13T03:44:20;97567.59;;;8.81;100.00
12879;BME280;20617;49.476;10.986;2023-03-13T03:46:28;97563.00;;;8.88;100.00
12879;BME280;20617;49.476;10.986;2023-03-13T03:48:33;97556.09;;;8.87;100.00
12879;BME280;20617;49.476;10.986;2023-03-13T03:50:42;97563.00;;;8.88;100.00
12879;BME280;20617;49.476;10.986;2023-03-13T03:52:48;97553.31;;;8.91;100.00
12879;BME280;20617;49.476;10.986;2023-03-13T03:54:53;97542.78;;;8.94;100.00
12879;BME280;20617;49.476;10.986;2023-03-13T03:56:58;97537.72;;;8.91;100.00
12879;BME280;20617;49.476;10.986;2023-03-13T03:59:03;97536.31;;;8.84;100.00
12879;BME280;20617;49.476;10.986;2023-03-13T04:01:15;97534.44;;;8.88;100.00
12879;BME280;20617;49.476;10.986;2023-03-13T04:03:20;97535.34;;;8.87;100.00
12879;BME280;20617;49.476;10.986;2023-03-13T04:05:25;97530.00;;;8.90;100.00
12879;BME280;20617;49.476;10.986;2023-03-13T04:07:32;97529.31;;;8.86;100.00
12879;BME280;20617;49.476;10.986;2023-03-13T04:09:37;97527.41;;;8.90;100.00
12879;BME280;20617;49.476;10.986;2023-03-13T04:11:44;97526.50;;;8.91;100.00
12879;BME280;20617;49.476;10.986;2023-03-13T04:13:49;97513.59;;;8.89;100.00
12879;BME280;20617;49.476;10.986;2023-03-13T04:15:54;97517.94;;;8.89;100.00
12879;BME280;20617;49.476;10.986;2023-03-13T04:17:58;97506.72;;;8.88;100.00
12879;BME280;20617;49.476;10.986;2023-03-13T04:20:03;97498.84;;;8.90;100.00
12879;BME280;20617;49.476;10.986;2023-03-13T04:22:06;97504.13;;;8.88;100.00
12879;BME280;20617;49.476;10.986;2023-03-13T04:24:18;97496.19;;;8.91;100.00
12879;BME280;20617;49.476;10.986;2023-03-13T04:26:23;97495.41;;;8.89;100.00
12879;BME280;20617;49.476;10.986;2023-03-13T04:28:29;97489.19;;;8.93;100.00
12879;BME280;20617;49.476;10.986;2023-03-13T04:30:36;97494.16;;;8.98;100.00
12879;BME280;20617;49.476;10.986;2023-03-13T04:32:59;97487.13;;;9.00;100.00
12879;BME280;20617;49.476;10.986;2023-03-13T04:35:24;97476.66;;;9.01;100.00
12879;BME280;20617;49.476;10.986;2023-03-13T04:37:42;97471.31;;;9.04;100.00
12879;BME280;20617;49.476;10.986;2023-03-13T04:40:21;97478.22;;;9.05;100.00
12879;BME280;20617;49.476;10.986;2023-03-13T04:42:38;97485.00;;;9.08;100.00
12879;BME280;20617;49.476;10.986;2023-03-13T04:45:10;97492.50;;;9.14;100.00
12879;BME280;20617;49.476;10.986;2023-03-13T04:47:25;97479.44;;;9.16;100.00
12879;BME280;20617;49.476;10.986;2023-03-13T04:49:53;97468.00;;;9.20;100.00
12879;BME280;20617;49.476;10.986;2023-03-13T04:52:13;97467.75;;;9.24;100.00
12879;BME280;20617;49.476;10.986;2023-03-13T04:54:34;97472.94;;;9.24;100.00
12879;BME280;20617;49.476;10.986;2023-03-13T04:57:14;97469.34;;;9.27;100.00
12879;BME280;20617;49.476;10.986;2023-03-13T04:59:45;97478.91;;;9.26;100.00
12879;BME280;20617;49.476;10.986;2023-03-13T05:02:00;97477.25;;;9.25;100.00
12879;BME280;20617;49.476;10.986;2023-03-13T05:04:42;97472.63;;;9.30;100.00
12879;BME280;20617;49.476;10.986;2023-03-13T05:07:18;97480.22;;;9.35;100.00
12879;BME280;20617;49.476;10.986;2023-03-13T05:09:58;97471.59;;;9.35;100.00
12879;BME280;20617;49.476;10.986;2023-03-13T05:12:38;97472.34;;;9.37;100.00
12879;BME280;20617;49.476;10.986;2023-03-13T05:14:52;97471.34;;;9.39;100.00
12879;BME280;20617;49.476;10.986;2023-03-13T05:17:19;97464.41;;;9.40;100.00
12879;BME280;20617;49.476;10.986;2023-03-13T05:19:24;97465.25;;;9.40;100.00
12879;BME280;20617;49.476;10.986;2023-03-13T05:21:54;97459.38;;;9.37;100.00
12879;BME280;20617;49.476;10.986;2023-03-13T05:24:23;97452.31;;;9.39;100.00
12879;BME280;20617;49.476;10.986;2023-03-13T05:26:41;97445.53;;;9.36;100.00
12879;BME280;20617;49.476;10.986;2023-03-13T05:29:14;97447.91;;;9.41;100.00
12879;BME280;20617;49.476;10.986;2023-03-13T05:31:37;97433.25;;;9.40;100.00
12879;BME280;20617;49.476;10.986;2023-03-13T05:33:47;97436.69;;;9.40;100.00
12879;BME280;20617;49.476;10.986;2023-03-13T05:36:07;97441.03;;;9.40;100.00
12879;BME280;20617;49.476;10.986;2023-03-13T05:38:17;97423.59;;;9.42;100.00
12879;BME280;20617;49.476;10.986;2023-03-13T05:40:38;97431.53;;;9.39;100.00
12879;BME280;20617;49.476;10.986;2023-03-13T05:43:07;97423.91;;;9.36;100.00
12879;BME280;20617;49.476;10.986;2023-03-13T05:45:40;97427.19;;;9.39;100.00
12879;BME280;20617;49.476;10.986;2023-03-13T05:48:21;97421.16;;;9.39;100.00
12879;BME280;20617;49.476;10.986;2023-03-13T05:50:56;97417.56;;;9.41;100.00
12879;BME280;20617;49.476;10.986;2023-03-13T05:53:36;97419.84;;;9.47;100.00
12879;BME280;20617;49.476;10.986;2023-03-13T05:55:51;97422.38;;;9.49;100.00
12879;BME280;20617;49.476;10.986;2023-03-13T05:58:15;97409.06;;;9.55;100.00
12879;BME280;20617;49.476;10.986;2023-03-13T06:00:45;97415.78;;;9.59;100.00
12879;BME280;20617;49.476;10.986;2023-03-13T06:03:09;97412.94;;;9.64;100.00
12879;BME280;20617;49.476;10.986;2023-03-13T06:05:18;97418.81;;;9.67;100.00
12879;BME280;20617;49.476;10.986;2023-03-13T06:07:22;97402.22;;;9.70;100.00
12879;BME280;20617;49.476;10.986;2023-03-13T06:09:27;97416.84;;;9.72;100.00
12879;BME280;20617;49.476;10.986;2023-03-13T06:11:32;97412.53;;;9.71;100.00
12879;BME280;20617;49.476;10.986;2023-03-13T06:13:38;97407.22;;;9.74;100.00
12879;BME280;20617;49.476;10.986;2023-03-13T06:15:56;97408.63;;;9.80;100.00
12879;BME280;20617;49.476;10.986;2023-03-13T06:18:14;97406.72;;;9.84;100.00
12879;BME280;20617;49.476;10.986;2023-03-13T06:20:19;97403.94;;;9.87;100.00
12879;BME280;20617;49.476;10.986;2023-03-13T06:22:23;97400.59;;;9.85;100.00
12879;BME280;20617;49.476;10.986;2023-03-13T06:24:28;97407.28;;;9.89;100.00
12879;BME280;20617;49.476;10.986;2023-03-13T06:26:33;97409.81;;;9.90;100.00
12879;BME280;20617;49.476;10.986;2023-03-13T06:28:37;97412.94;;;9.97;100.00
12879;BME280;20617;49.476;10.986;2023-03-13T06:30:42;97412.03;;;9.98;100.00
12879;BME280;20617;49.476;10.986;2023-03-13T06:32:49;97411.16;;;9.97;100.00
12879;BME280;20617;49.476;10.986;2023-03-13T06:34:54;97417.13;;;10.00;100.00
12879;BME280;20617;49.476;10.986;2023-03-13T06:36:58;97413.09;;;9.94;100.00
12879;BME280;20617;49.476;10.986;2023-03-13T06:39:03;97411.44;;;9.93;100.00
12879;BME280;20617;49.476;10.986;2023-03-13T06:41:08;97411.09;;;9.99;100.00
12879;BME280;20617;49.476;10.986;2023-03-13T06:43:13;97413.53;;;10.02;100.00
12879;BME280;20617;49.476;10.986;2023-03-13T06:45:18;97403.63;;;10.09;100.00
12879;BME280;20617;49.476;10.986;2023-03-13T06:47:22;97400.97;;;10.10;100.00
12879;BME280;20617;49.476;10.986;2023-03-13T06:49:29;97398.97;;;10.15;100.00
12879;BME280;20617;49.476;10.986;2023-03-13T06:51:34;97394.59;;;10.16;100.00
12879;BME280;20617;49.476;10.986;2023-03-13T06:53:39;97393.50;;;10.20;100.00
12879;BME280;20617;49.476;10.986;2023-03-13T06:55:44;97390.81;;;10.22;100.00
12879;BME280;20617;49.476;10.986;2023-03-13T06:57:50;97387.28;;;10.23;100.00
12879;BME280;20617;49.476;10.986;2023-03-13T06:59:54;97387.38;;;10.21;100.00
12879;BME280;20617;49.476;10.986;2023-03-13T07:01:59;97384.47;;;10.27;100.00
12879;BME280;20617;49.476;10.986;2023-03-13T07:04:03;97385.31;;;10.28;100.00
12879;BME280;20617;49.476;10.986;2023-03-13T07:06:11;97387.75;;;10.31;100.00
12879;BME280;20617;49.476;10.986;2023-03-13T07:08:15;97386.75;;;10.33;100.00
12879;BME280;20617;49.476;10.986;2023-03-13T07:10:20;97386.66;;;10.35;100.00
12879;BME280;20617;49.476;10.986;2023-03-13T07:12:25;97381.44;;;10.35;100.00
12879;BME280;20617;49.476;10.986;2023-03-13T07:14:30;97381.28;;;10.38;100.00
12879;BME280;20617;49.476;10.986;2023-03-13T07:16:34;97374.81;;;10.45;100.00
12879;BME280;20617;49.476;10.986;2023-03-13T07:18:39;97379.75;;;10.50;100.00
12879;BME280;20617;49.476;10.986;2023-03-13T07:20:50;97382.34;;;10.50;100.00
12879;BME280;20617;49.476;10.986;2023-03-13T07:22:58;97381.16;;;10.55;100.00
12879;BME280;20617;49.476;10.986;2023-03-13T07:25:02;97381.69;;;10.62;100.00
12879;BME280;20617;49.476;10.986;2023-03-13T07:27:07;97384.66;;;10.70;100.00
12879;BME280;20617;49.476;10.986;2023-03-13T07:29:12;97387.03;;;10.75;100.00
12879;BME280;20617;49.476;10.986;2023-03-13T07:31:17;97386.03;;;10.77;100.00
12879;BME280;20617;49.476;10.986;2023-03-13T07:33:22;97388.19;;;10.85;100.00
12879;BME280;20617;49.476;10.986;2023-03-13T07:36:40;97380.88;;;10.92;100.00
12879;BME280;20617;49.476;10.986;2023-03-13T07:38:46;97376.88;;;11.00;100.00
12879;BME280;20617;49.476;10.986;2023-03-13T07:40:53;97370.50;;;11.06;100.00
12879;BME280;20617;49.476;10.986;2023-03-13T07:42:58;97375.22;;;11.14;100.00
12879;BME280;20617;49.476;10.986;2023-03-13T07:45:03;97368.09;;;11.17;100.00
12879;BME280;20617;49.476;10.986;2023-03-13T07:47:09;97370.41;;;11.22;100.00
12879;BME280;20617;49.476;10.986;2023-03-13T07:49:14;97364.19;;;11.24;100.00
12879;BME280;20617;49.476;10.986;2023-03-13T07:51:21;97358.63;;;11.30;100.00
12879;BME280;20617;49.476;10.986;2023-03-13T07:53:46;97352.19;;;11.36;100.00
12879;BME280;20617;49.476;10.986;2023-03-13T07:55:56;97351.66;;;11.45;100.00
12879;BME280;20617;49.476;10.986;2023-03-13T07:58:01;97341.88;;;11.49;100.00
12879;BME280;20617;49.476;10.986;2023-03-13T08:00:07;97339.09;;;11.52;100.00
12879;BME280;20617;49.476;10.986;2023-03-13T08:02:17;97335.00;;;11.62;100.00
12879;BME280;20617;49.476;10.986;2023-03-13T08:04:22;97327.75;;;11.67;100.00
12879;BME280;20617;49.476;10.986;2023-03-13T08:06:29;97326.13;;;11.79;100.00
12879;BME280;20617;49.476;10.986;2023-03-13T08:08:37;97326.34;;;11.76;100.00
12879;BME280;20617;49.476;10.986;2023-03-13T08:10:44;97327.72;;;11.82;100.00
12879;BME280;20617;49.476;10.986;2023-03-13T08:12:49;97328.19;;;11.88;100.00
12879;BME280;20617;49.476;10.986;2023-03-13T08:14:54;97334.81;;;11.94;100.00
12879;BME280;20617;49.476;10.986;2023-03-13T08:16:59;97325.97;;;11.96;100.00
12879;BME280;20617;49.476;10.986;2023-03-13T08:19:04;97324.00;;;12.00;100.00
12879;BME280;20617;49.476;10.986;2023-03-13T08:21:10;97331.72;;;12.02;100.00
12879;BME280;20617;49.476;10.986;2023-03-13T08:23:16;97322.31;;;11.99;100.00
12879;BME280;20617;49.476;10.986;2023-03-13T08:25:20;97320.72;;;12.11;100.00
12879;BME280;20617;49.476;10.986;2023-03-13T08:27:28;97316.13;;;12.14;100.00
12879;BME280;20617;49.476;10.986;2023-03-13T08:29:33;97315.84;;;12.19;100.00
12879;BME280;20617;49.476;10.986;2023-03-13T08:31:42;97313.56;;;12.27;100.00
12879;BME280;20617;49.476;10.986;2023-03-13T08:33:48;97321.66;;;12.37;100.00
12879;BME280;20617;49.476;10.986;2023-03-13T08:35:53;97313.69;;;12.26;100.00
12879;BME280;20617;49.476;10.986;2023-03-13T08:37:58;97318.38;;;12.33;100.00
12879;BME280;20617;49.476;10.986;2023-03-13T08:40:04;97317.81;;;12.42;100.00
12879;BME280;20617;49.476;10.986;2023-03-13T08:42:12;97309.66;;;12.34;100.00
12879;BME280;20617;49.476;10.986;2023-03-13T08:44:19;97313.00;;;12.36;100.00
12879;BME280;20617;49.476;10.986;2023-03-13T08:46:24;97310.91;;;12.41;100.00
12879;BME280;20617;49.476;10.986;2023-03-13T08:48:29;97313.31;;;12.44;100.00
12879;BME280;20617;49.476;10.986;2023-03-13T08:50:34;97318.53;;;12.44;100.00
12879;BME280;20617;49.476;10.986;2023-03-13T08:52:38;97305.63;;;12.56;100.00
12879;BME280;20617;49.476;10.986;2023-03-13T08:54:43;97300.94;;;12.61;100.00
12879;BME280;20617;49.476;10.986;2023-03-13T08:56:48;97301.09;;;12.72;100.00
12879;BME280;20617;49.476;10.986;2023-03-13T08:58:54;97297.03;;;12.81;100.00
12879;BME280;20617;49.476;10.986;2023-03-13T09:01:04;97302.38;;;12.92;100.00
12879;BME280;20617;49.476;10.986;2023-03-13T09:03:09;97299.34;;;12.98;100.00
12879;BME280;20617;49.476;10.986;2023-03-13T09:05:14;97301.66;;;13.03;100.00
12879;BME280;20617;49.476;10.986;2023-03-13T09:07:20;97302.38;;;13.05;100.00
12879;BME280;20617;49.476;10.986;2023-03-13T09:09:25;97306.38;;;13.10;100.00
12879;BME280;20617;49.476;10.986;2023-03-13T09:11:30;97300.63;;;13.18;100.00
12879;BME280;20617;49.476;10.986;2023-03-13T09:13:37;97306.91;;;13.28;100.00
12879;BME280;20617;49.476;10.986;2023-03-13T09:15:42;97297.72;;;13.35;100.00
12879;BME280;20617;49.476;10.986;2023-03-13T09:17:49;97288.00;;;13.50;100.00
12879;BME280;20617;49.476;10.986;2023-03-13T09:19:54;97286.09;;;13.65;100.00
12879;BME280;20617;49.476;10.986;2023-03-13T09:22:01;97289.22;;;13.70;100.00
12879;BME280;20617;49.476;10.986;2023-03-13T09:24:07;97287.84;;;13.77;100.00
12879;BME280;20617;49.476;10.986;2023-03-13T09:26:13;97283.34;;;13.79;100.00
12879;BME280;20617;49.476;10.986;2023-03-13T09:28:18;97284.34;;;13.90;100.00
12879;BME280;20617;49.476;10.986;2023-03-13T09:30:23;97282.63;;;14.01;100.00
12879;BME280;20617;49.476;10.986;2023-03-13T09:32:27;97281.81;;;14.01;100.00
12879;BME280;20617;49.476;10.986;2023-03-13T09:34:35;97271.00;;;14.06;100.00
12879;BME280;20617;49.476;10.986;2023-03-13T09:36:40;97266.91;;;14.14;100.00
12879;BME280;20617;49.476;10.986;2023-03-13T09:38:45;97275.22;;;14.19;100.00
12879;BME280;20617;49.476;10.986;2023-03-13T09:40:50;97277.97;;;14.18;100.00
12879;BME280;20617;49.476;10.986;2023-03-13T09:43:18;97275.50;;;14.27;100.00
12879;BME280;20617;49.476;10.986;2023-03-13T09:45:30;97256.63;;;14.35;100.00
12879;BME280;20617;49.476;10.986;2023-03-13T09:47:40;97269.41;;;14.40;100.00
12879;BME280;20617;49.476;10.986;2023-03-13T09:49:51;97263.16;;;14.54;100.00
12879;BME280;20617;49.476;10.986;2023-03-13T09:52:03;97276.66;;;14.71;100.00
12879;BME280;20617;49.476;10.986;2023-03-13T09:54:19;97257.09;;;15.00;100.00
12879;BME280;20617;49.476;10.986;2023-03-13T09:56:29;97255.47;;;15.10;100.00
12879;BME280;20617;49.476;10.986;2023-03-13T09:58:36;97258.78;;;15.23;100.00
12879;BME280;20617;49.476;10.986;2023-03-13T10:00:47;97249.34;;;15.09;100.00
12879;BME280;20617;49.476;10.986;2023-03-13T10:02:55;97256.94;;;14.79;100.00
12879;BME280;20617;49.476;10.986;2023-03-13T10:05:16;97273.84;;;14.50;100.00
12879;BME280;20617;49.476;10.986;2023-03-13T10:07:22;97278.03;;;14.53;100.00
12879;BME280;20617;49.476;10.986;2023-03-13T10:09:29;97272.13;;;14.62;100.00
12879;BME280;20617;49.476;10.986;2023-03-13T10:11:39;97266.38;;;14.57;100.00
12879;BME280;20617;49.476;10.986;2023-03-13T10:13:49;97269.44;;;14.51;100.00
12879;BME280;20617;49.476;10.986;2023-03-13T10:15:58;97259.63;;;14.55;100.00
12879;BME280;20617;49.476;10.986;2023-03-13T10:18:13;97272.03;;;14.64;100.00
12879;BME280;20617;49.476;10.986;2023-03-13T10:20:25;97264.63;;;14.58;100.00
12879;BME280;20617;49.476;10.986;2023-03-13T10:22:31;97271.63;;;14.57;100.00
12879;BME280;20617;49.476;10.986;2023-03-13T10:24:43;97277.75;;;14.45;100.00
12879;BME280;20617;49.476;10.986;2023-03-13T10:26:49;97275.63;;;14.50;100.00
12879;BME280;20617;49.476;10.986;2023-03-13T10:28:55;97276.59;;;14.49;100.00
12879;BME280;20617;49.476;10.986;2023-03-13T10:31:05;97272.19;;;14.49;100.00
12879;BME280;20617;49.476;10.986;2023-03-13T10:33:21;97282.50;;;14.40;100.00
12879;BME280;20617;49.476;10.986;2023-03-13T10:35:35;97277.88;;;14.43;100.00
12879;BME280;20617;49.476;10.986;2023-03-13T10:37:42;97292.91;;;14.29;100.00
12879;BME280;20617;49.476;10.986;2023-03-13T10:39:47;97278.25;;;14.26;100.00
12879;BME280;20617;49.476;10.986;2023-03-13T10:41:56;97283.81;;;14.21;100.00
12879;BME280;20617;49.476;10.986;2023-03-13T10:44:04;97286.22;;;14.24;100.00
12879;BME280;20617;49.476;10.986;2023-03-13T10:46:10;97281.31;;;14.20;100.00
12879;BME280;20617;49.476;10.986;2023-03-13T10:48:18;97273.34;;;14.21;100.00
12879;BME280;20617;49.476;10.986;2023-03-13T10:50:25;97274.06;;;14.23;100.00
12879;BME280;20617;49.476;10.986;2023-03-13T10:52:41;97269.00;;;14.33;100.00
12879;BME280;20617;49.476;10.986;2023-03-13T10:54:46;97280.53;;;14.31;100.00
12879;BME280;20617;49.476;10.986;2023-03-13T10:56:53;97276.47;;;14.26;100.00
12879;BME280;20617;49.476;10.986;2023-03-13T10:59:22;97282.97;;;14.21;100.00
12879;BME280;20617;49.476;10.986;2023-03-13T11:01:29;97274.06;;;14.23;100.00
12879;BME280;20617;49.476;10.986;2023-03-13T11:03:34;97280.06;;;14.25;100.00
12879;BME280;20617;49.476;10.986;2023-03-13T11:05:40;97268.72;;;14.25;100.00
12879;BME280;20617;49.476;10.986;2023-03-13T11:07:49;97260.63;;;14.28;100.00
12879;BME280;20617;49.476;10.986;2023-03-13T11:09:58;97266.50;;;14.32;100.00
12879;BME280;20617;49.476;10.986;2023-03-13T11:12:05;97258.31;;;14.36;100.00